createdAt,value
2017-03-17T00:00:07.441Z,1002.23
2017-03-17T00:01:17.465Z,1002.22
2017-03-17T00:02:27.513Z,1002.22
2017-03-17T00:03:37.870Z,1002.22
2017-03-17T00:04:48.226Z,1002.28
2017-03-17T00:05:58.580Z,1002.23
2017-03-17T00:07:08.911Z,1002.24
2017-03-17T00:08:18.933Z,1002.26
2017-03-17T00:09:28.955Z,1002.24
2017-03-17T00:10:39.285Z,1002.18
2017-03-17T00:11:49.630Z,1002.19
2017-03-17T00:12:59.668Z,1002.22
2017-03-17T00:14:10.039Z,1002.18
2017-03-17T00:15:20.374Z,1002.2
2017-03-17T00:16:30.732Z,1002.17
2017-03-17T00:17:41.069Z,1002.15
2017-03-17T00:18:51.385Z,1002.14
2017-03-17T00:20:01.732Z,1002.14
2017-03-17T00:21:12.066Z,1002.14
2017-03-17T00:22:22.402Z,1002.13
2017-03-17T00:23:32.463Z,1002.09
2017-03-17T00:24:42.496Z,1002.08
2017-03-17T00:25:52.832Z,1002.05
2017-03-17T00:27:02.854Z,1002.03
2017-03-17T00:28:12.882Z,1002.04
2017-03-17T00:29:23.266Z,1002.03
2017-03-17T00:30:33.590Z,1002.06
2017-03-17T00:31:43.944Z,1001.99
2017-03-17T00:32:54.271Z,1002.04
2017-03-17T00:34:04.618Z,1002
2017-03-17T00:35:14.950Z,1002.01
2017-03-17T00:36:25.293Z,1002.02
2017-03-17T00:37:35.318Z,1002.03
2017-03-17T00:38:45.671Z,1002.04
2017-03-17T00:39:55.390Z,1002.02
2017-03-17T00:41:05.719Z,1002
2017-03-17T00:42:16.044Z,1002
2017-03-17T00:43:26.371Z,1001.94
2017-03-17T00:44:36.704Z,1001.94
2017-03-17T00:45:47.046Z,1001.94
2017-03-17T00:46:57.383Z,1001.91
2017-03-17T00:48:07.409Z,1001.93
2017-03-17T00:49:17.444Z,1001.91
2017-03-17T00:50:27.792Z,1001.89
2017-03-17T00:51:37.819Z,1001.89
2017-03-17T00:52:48.175Z,1001.91
2017-03-17T00:53:58.202Z,1001.87
2017-03-17T00:55:08.539Z,1001.83
2017-03-17T00:56:18.879Z,1001.83
2017-03-17T00:57:28.900Z,1001.84
2017-03-17T00:58:39.234Z,1001.8
2017-03-17T00:59:49.582Z,1001.73
2017-03-17T01:00:59.607Z,1001.76
2017-03-17T01:02:09.639Z,1001.75
2017-03-17T01:03:19.984Z,1001.74
2017-03-17T01:04:30.320Z,1001.76
2017-03-17T01:05:40.350Z,1001.75
2017-03-17T01:06:50.684Z,1001.73
2017-03-17T01:08:01.014Z,1001.74
2017-03-17T01:09:11.353Z,1001.73
2017-03-17T01:10:21.709Z,1001.73
2017-03-17T01:11:31.730Z,1001.72
2017-03-17T01:12:41.742Z,1001.69
2017-03-17T01:13:51.760Z,1001.71
2017-03-17T01:15:02.100Z,1001.69
2017-03-17T01:16:12.425Z,1001.69
2017-03-17T01:17:22.751Z,1001.71
2017-03-17T01:18:33.076Z,1001.69
2017-03-17T01:19:43.425Z,1001.69
2017-03-17T01:20:53.762Z,1001.66
2017-03-17T01:22:03.764Z,1001.65
2017-03-17T01:23:14.100Z,1001.65
2017-03-17T01:24:24.434Z,1001.61
2017-03-17T01:25:34.483Z,1001.58
2017-03-17T01:26:44.820Z,1001.59
2017-03-17T01:27:55.156Z,1001.54
2017-03-17T01:29:05.182Z,1001.55
2017-03-17T01:30:15.526Z,1001.54
2017-03-17T01:31:25.849Z,1001.57
2017-03-17T01:32:35.879Z,1001.55
2017-03-17T01:33:45.891Z,1001.55
2017-03-17T01:34:56.238Z,1001.56
2017-03-17T01:36:06.569Z,1001.53
2017-03-17T01:37:16.898Z,1001.5
2017-03-17T01:38:26.933Z,1001.51
2017-03-17T01:39:37.286Z,1001.49
2017-03-17T01:40:47.620Z,1001.5
2017-03-17T01:41:57.332Z,1001.45
2017-03-17T01:43:07.684Z,1001.42
2017-03-17T01:44:18.021Z,1001.4
2017-03-17T01:45:28.343Z,1001.36
2017-03-17T01:46:38.660Z,1001.32
2017-03-17T01:47:48.996Z,1001.32
2017-03-17T01:48:59.332Z,1001.36
2017-03-17T01:50:09.345Z,1001.35
2017-03-17T01:51:19.691Z,1001.3
2017-03-17T01:52:29.405Z,1001.33
2017-03-17T01:53:39.745Z,1001.31
2017-03-17T01:54:49.786Z,1001.31
2017-03-17T01:55:59.807Z,1001.29
2017-03-17T01:57:10.140Z,1001.3
2017-03-17T01:58:20.469Z,1001.27
2017-03-17T01:59:30.511Z,1001.25
2017-03-17T02:00:40.858Z,1001.27
2017-03-17T02:01:51.211Z,1001.27
2017-03-17T02:03:01.215Z,1001.31
2017-03-17T02:04:11.229Z,1001.29
2017-03-17T02:05:21.572Z,1001.28
2017-03-17T02:06:31.885Z,1001.31
2017-03-17T02:07:42.211Z,1001.35
2017-03-17T02:08:52.228Z,1001.3
2017-03-17T02:10:02.275Z,1001.34
2017-03-17T02:11:12.318Z,1001.3
2017-03-17T02:12:22.662Z,1001.32
2017-03-17T02:13:32.697Z,1001.33
2017-03-17T02:14:42.401Z,1001.32
2017-03-17T02:15:52.730Z,1001.31
2017-03-17T02:17:02.745Z,1001.32
2017-03-17T02:18:12.751Z,1001.28
2017-03-17T02:19:23.076Z,1001.33
2017-03-17T02:20:33.416Z,1001.25
2017-03-17T02:21:43.754Z,1001.27
2017-03-17T02:22:54.082Z,1001.2
2017-03-17T02:24:04.415Z,1001.19
2017-03-17T02:25:14.750Z,1001.19
2017-03-17T02:26:25.083Z,1001.18
2017-03-17T02:27:35.415Z,1001.17
2017-03-17T02:28:45.448Z,1001.16
2017-03-17T02:29:55.778Z,1001.15
2017-03-17T02:31:05.804Z,1001.12
2017-03-17T02:32:15.821Z,1001.09
2017-03-17T02:33:25.537Z,1001.1
2017-03-17T02:34:35.866Z,1001.11
2017-03-17T02:35:46.197Z,1001.07
2017-03-17T02:36:56.518Z,1001.02
2017-03-17T02:38:06.854Z,1001.06
2017-03-17T02:39:16.876Z,1001.04
2017-03-17T02:40:27.215Z,1001.1
2017-03-17T02:41:37.580Z,1001.06
2017-03-17T02:42:47.594Z,1001.06
2017-03-17T02:43:57.926Z,1001.06
2017-03-17T02:45:07.951Z,1001.08
2017-03-17T02:46:18.274Z,1001.06
2017-03-17T02:47:28.275Z,1001.07
2017-03-17T02:48:38.301Z,1001.08
2017-03-17T02:49:48.636Z,1001.05
2017-03-17T02:50:58.668Z,1001.05
2017-03-17T02:52:09.027Z,1001.03
2017-03-17T02:53:19.345Z,1001.03
2017-03-17T02:54:29.683Z,1001.02
2017-03-17T02:55:40.027Z,1000.99
2017-03-17T02:56:50.362Z,1000.95
2017-03-17T02:58:00.685Z,1000.93
2017-03-17T02:59:11.013Z,1000.91
2017-03-17T03:00:21.358Z,1000.91
2017-03-17T03:01:31.685Z,1000.85
2017-03-17T03:32:36.273Z,1000.61
2017-03-17T03:33:46.604Z,1000.61
2017-03-17T03:34:56.314Z,1000.6
2017-03-17T03:36:06.640Z,1000.56
2017-03-17T03:37:16.660Z,1000.55
2017-03-17T03:38:26.991Z,1000.54
2017-03-17T03:39:37.360Z,1000.54
2017-03-17T03:40:47.691Z,1000.52
2017-03-17T03:41:58.019Z,1000.52
2017-03-17T03:43:08.346Z,1000.5
2017-03-17T03:44:18.685Z,1000.46
2017-03-17T03:45:28.698Z,1000.48
2017-03-17T03:46:38.718Z,1000.45
2017-03-17T03:47:48.733Z,1000.44
2017-03-17T03:48:58.752Z,1000.38
2017-03-17T03:50:09.084Z,1000.33
2017-03-17T03:51:19.420Z,1000.38
2017-03-17T03:52:29.110Z,1000.38
2017-03-17T03:53:39.465Z,1000.39
2017-03-17T03:54:50.022Z,1000.38
2017-03-17T03:56:00.350Z,1000.39
2017-03-17T03:57:10.362Z,1000.35
2017-03-17T03:58:20.377Z,1000.39
2017-03-17T03:59:30.716Z,1000.36
2017-03-17T04:00:41.044Z,1000.32
2017-03-17T04:01:51.368Z,1000.31
2017-03-17T04:03:01.704Z,1000.29
2017-03-17T04:04:12.042Z,1000.29
2017-03-17T04:05:22.077Z,1000.34
2017-03-17T04:06:32.409Z,1000.31
2017-03-17T04:07:42.744Z,1000.3
2017-03-17T04:08:52.781Z,1000.29
2017-03-17T04:10:03.117Z,1000.25
2017-03-17T04:11:13.446Z,1000.24
2017-03-17T04:12:23.770Z,1000.26
2017-03-17T04:13:34.107Z,1000.3
2017-03-17T04:14:44.437Z,1000.29
2017-03-17T04:15:54.767Z,1000.29
2017-03-17T04:17:05.089Z,1000.28
2017-03-17T04:18:15.430Z,1000.3
2017-03-17T04:19:25.455Z,1000.31
2017-03-17T04:20:35.172Z,1000.35
2017-03-17T04:21:45.496Z,1000.27
2017-03-17T04:22:55.827Z,1000.27
2017-03-17T04:24:06.168Z,1000.29
2017-03-17T04:25:16.184Z,1000.26
2017-03-17T04:26:26.192Z,1000.23
2017-03-17T04:27:36.517Z,1000.22
2017-03-17T04:28:46.864Z,1000.22
2017-03-17T04:29:56.883Z,1000.23
2017-03-17T04:31:07.245Z,1000.24
2017-03-17T04:32:17.569Z,1000.22
2017-03-17T04:33:27.895Z,1000.23
2017-03-17T04:34:38.251Z,1000.21
2017-03-17T04:35:48.591Z,1000.22
2017-03-17T04:36:58.620Z,1000.18
2017-03-17T04:38:08.642Z,1000.17
2017-03-17T04:39:18.978Z,1000.21
2017-03-17T04:40:28.679Z,1000.17
2017-03-17T04:41:39.014Z,1000.23
2017-03-17T04:42:49.342Z,1000.2
2017-03-17T04:43:59.356Z,1000.19
2017-03-17T04:45:09.710Z,1000.21
2017-03-17T04:46:19.724Z,1000.25
2017-03-17T04:47:30.065Z,1000.23
2017-03-17T04:48:40.400Z,1000.22
2017-03-17T04:49:50.727Z,1000.25
2017-03-17T04:51:00.764Z,1000.27
2017-03-17T04:52:10.470Z,1000.25
2017-03-17T04:53:20.486Z,1000.22
2017-03-17T04:54:30.827Z,1000.23
2017-03-17T04:55:41.145Z,1000.24
2017-03-17T04:56:51.483Z,1000.3
2017-03-17T04:58:01.503Z,1000.31
2017-03-17T04:59:11.835Z,1000.32
2017-03-17T05:00:22.165Z,1000.28
2017-03-17T05:01:32.190Z,1000.27
2017-03-17T05:02:42.526Z,1000.27
2017-03-17T05:03:52.864Z,1000.25
2017-03-17T05:05:03.451Z,1000.26
2017-03-17T05:06:13.765Z,1000.28
2017-03-17T05:07:24.083Z,1000.27
2017-03-17T05:08:34.112Z,1000.23
2017-03-17T05:09:44.117Z,1000.26
2017-03-17T05:10:54.442Z,1000.3
2017-03-17T05:12:04.464Z,1000.31
2017-03-17T05:13:14.782Z,1000.3
2017-03-17T05:14:25.156Z,1000.31
2017-03-17T05:15:35.479Z,1000.28
2017-03-17T05:16:45.519Z,1000.25
2017-03-17T05:17:55.540Z,1000.3
2017-03-17T05:19:05.882Z,1000.24
2017-03-17T05:20:16.208Z,1000.28
2017-03-17T05:21:26.230Z,1000.26
2017-03-17T05:22:36.554Z,1000.3
2017-03-17T05:23:46.922Z,1000.24
2017-03-17T05:24:57.251Z,1000.23
2017-03-17T05:26:07.267Z,1000.24
2017-03-17T05:27:17.597Z,1000.22
2017-03-17T05:28:27.925Z,1000.19
2017-03-17T05:29:37.946Z,1000.21
2017-03-17T05:30:47.959Z,1000.19
2017-03-17T05:31:58.294Z,1000.19
2017-03-17T05:33:08.622Z,1000.23
2017-03-17T05:34:18.576Z,1000.18
2017-03-17T05:35:28.925Z,1000.2
2017-03-17T05:36:39.254Z,1000.19
2017-03-17T05:37:49.596Z,1000.18
2017-03-17T05:38:59.946Z,1000.17
2017-03-17T05:40:10.286Z,1000.18
2017-03-17T05:41:20.611Z,1000.17
2017-03-17T05:42:30.639Z,1000.17
2017-03-17T05:43:40.350Z,1000.14
2017-03-17T05:44:50.694Z,1000.19
2017-03-17T05:46:01.024Z,1000.18
2017-03-17T05:47:11.366Z,1000.15
2017-03-17T05:48:21.682Z,1000.13
2017-03-17T05:49:32.006Z,1000.12
2017-03-17T05:50:42.353Z,1000.13
2017-03-17T05:51:52.058Z,1000.14
2017-03-17T05:53:02.380Z,1000.17
2017-03-17T05:54:12.408Z,1000.14
2017-03-17T05:55:22.741Z,1000.18
2017-03-17T05:56:33.090Z,1000.12
2017-03-17T05:57:43.410Z,1000.14
2017-03-17T05:58:53.474Z,1000.13
2017-03-17T06:00:03.832Z,1000.14
2017-03-17T06:01:14.187Z,1000.1
2017-03-17T06:02:24.525Z,1000.12
2017-03-17T06:03:34.878Z,1000.07
2017-03-17T06:04:45.226Z,1000.09
2017-03-17T06:05:55.562Z,1000.08
2017-03-17T06:07:05.596Z,1000.02
2017-03-17T06:08:15.929Z,1000.04
2017-03-17T06:09:26.268Z,1000.02
2017-03-17T06:10:36.620Z,1000.02
2017-03-17T06:11:46.348Z,1000
2017-03-17T06:12:56.383Z,1000.02
2017-03-17T06:14:06.131Z,1000.01
2017-03-17T06:15:16.187Z,999.97
2017-03-17T06:16:26.538Z,999.98
2017-03-17T06:17:36.871Z,999.99
2017-03-17T06:18:47.255Z,1000.01
2017-03-17T06:19:57.608Z,1000.01
2017-03-17T06:21:07.942Z,999.98
2017-03-17T06:22:18.314Z,999.98
2017-03-17T06:23:28.651Z,999.97
2017-03-17T06:24:38.684Z,999.99
2017-03-17T06:25:49.019Z,999.98
2017-03-17T06:26:59.355Z,1000
2017-03-17T06:28:09.073Z,999.94
2017-03-17T06:29:19.393Z,999.99
2017-03-17T06:30:29.710Z,1000.01
2017-03-17T06:31:39.746Z,999.99
2017-03-17T06:32:50.088Z,999.99
2017-03-17T06:34:00.420Z,999.96
2017-03-17T06:35:10.455Z,999.9
2017-03-17T06:36:20.786Z,999.9
2017-03-17T06:37:30.798Z,999.9
2017-03-17T06:38:40.843Z,999.9
2017-03-17T06:39:50.867Z,999.91
2017-03-17T06:41:01.210Z,999.94
2017-03-17T06:42:11.547Z,999.96
2017-03-17T06:43:21.871Z,999.96
2017-03-17T06:44:32.220Z,999.95
2017-03-17T06:45:42.246Z,999.93
2017-03-17T06:46:52.603Z,999.93
2017-03-17T06:48:02.936Z,999.97
2017-03-17T06:49:12.960Z,999.95
2017-03-17T06:50:23.300Z,999.97
2017-03-17T06:51:33.627Z,999.95
2017-03-17T06:52:43.953Z,999.96
2017-03-17T06:53:54.284Z,999.97
2017-03-17T06:55:04.305Z,999.96
2017-03-17T06:56:14.640Z,999.95
2017-03-17T06:57:24.984Z,999.97
2017-03-17T06:58:35.327Z,999.95
2017-03-17T06:59:45.689Z,999.91
2017-03-17T07:00:55.398Z,999.87
2017-03-17T07:02:05.734Z,999.83
2017-03-17T07:03:16.065Z,999.87
2017-03-17T07:04:26.409Z,999.8
2017-03-17T07:05:36.479Z,999.73
2017-03-17T07:06:46.817Z,999.72
2017-03-17T07:07:57.174Z,999.73
2017-03-17T07:09:07.484Z,999.67
2017-03-17T07:10:17.508Z,999.64
2017-03-17T07:11:27.885Z,999.65
2017-03-17T07:12:37.898Z,999.58
2017-03-17T07:13:48.243Z,999.57
2017-03-17T07:14:58.274Z,999.56
2017-03-17T07:16:08.287Z,999.56
2017-03-17T07:17:18.624Z,999.58
2017-03-17T07:18:28.346Z,999.55
2017-03-17T07:19:38.684Z,999.57
2017-03-17T07:20:49.030Z,999.53
2017-03-17T07:21:59.385Z,999.55
2017-03-17T07:23:09.752Z,999.51
2017-03-17T07:24:19.796Z,999.48
2017-03-17T07:25:29.529Z,999.43
2017-03-17T07:26:39.869Z,999.44
2017-03-17T07:27:50.204Z,999.42
2017-03-17T07:29:00.550Z,999.39
2017-03-17T07:30:10.881Z,999.41
2017-03-17T07:31:20.916Z,999.42
2017-03-17T07:32:49.842Z,999.4
2017-03-17T07:34:00.186Z,999.41
2017-03-17T07:35:10.523Z,999.38
2017-03-17T07:36:20.541Z,999.36
2017-03-17T07:37:30.876Z,999.36
2017-03-17T07:38:41.214Z,999.35
2017-03-17T07:39:51.552Z,999.35
2017-03-17T07:41:01.904Z,999.34
2017-03-17T07:42:11.940Z,999.35
2017-03-17T07:43:22.259Z,999.34
2017-03-17T07:44:32.474Z,999.33
2017-03-17T07:45:42.752Z,999.32
2017-03-17T07:46:53.036Z,999.33
2017-03-17T07:48:03.306Z,999.32
2017-03-17T07:49:13.576Z,999.3
2017-03-17T07:50:23.233Z,999.31
2017-03-17T07:51:33.508Z,999.29
2017-03-17T07:52:43.185Z,999.29
2017-03-17T07:53:53.471Z,999.26
2017-03-17T07:55:03.761Z,999.23
2017-03-17T07:56:14.037Z,999.23
2017-03-17T07:57:24.007Z,999.25
2017-03-17T07:58:34.313Z,999.21
2017-03-17T07:59:44.579Z,999.25
2017-03-17T08:00:54.527Z,999.24
2017-03-17T08:02:04.495Z,999.24
2017-03-17T08:03:14.764Z,999.29
2017-03-17T08:04:24.734Z,999.3
2017-03-17T08:05:35.009Z,999.27
2017-03-17T08:06:45.280Z,999.29
2017-03-17T08:07:55.257Z,999.26
2017-03-17T08:09:05.220Z,999.26
2017-03-17T08:10:15.524Z,999.21
2017-03-17T08:11:25.803Z,999.2
2017-03-17T08:12:35.480Z,999.2
2017-03-17T08:13:45.462Z,999.16
2017-03-17T08:14:55.747Z,999.17
2017-03-17T08:16:06.015Z,999.18
2017-03-17T08:17:15.677Z,999.13
2017-03-17T08:18:25.940Z,999.11
2017-03-17T08:19:36.211Z,999.14
2017-03-17T08:20:46.472Z,999.12
2017-03-17T08:21:56.736Z,999.11
2017-03-17T08:23:07.002Z,999.08
2017-03-17T08:24:16.988Z,999.08
2017-03-17T08:25:27.263Z,999.08
2017-03-17T08:26:37.599Z,999.08
2017-03-17T08:27:47.882Z,999.07
2017-03-17T08:28:57.852Z,999.05
2017-03-17T08:30:07.810Z,999.02
2017-03-17T08:31:18.085Z,999.02
2017-03-17T08:32:28.364Z,999.01
2017-03-17T08:33:38.337Z,999.03
2017-03-17T08:34:48.621Z,998.98
2017-03-17T08:35:58.888Z,998.99
2017-03-17T08:37:09.180Z,998.98
2017-03-17T08:38:19.161Z,998.98
2017-03-17T08:39:29.442Z,998.97
2017-03-17T08:40:39.727Z,998.96
2017-03-17T08:41:50.012Z,998.93
2017-03-17T08:43:00.291Z,998.88
2017-03-17T08:44:10.580Z,998.86
2017-03-17T08:45:20.875Z,998.87
2017-03-17T08:46:30.845Z,998.87
2017-03-17T08:47:41.145Z,998.86
2017-03-17T08:48:51.431Z,998.86
2017-03-17T08:50:01.408Z,998.81
2017-03-17T08:51:11.393Z,998.82
2017-03-17T08:52:21.058Z,998.78
2017-03-17T08:53:31.340Z,998.75
2017-03-17T08:54:41.602Z,998.73
2017-03-17T08:55:51.870Z,998.74
2017-03-17T08:57:02.174Z,998.69
2017-03-17T08:58:12.444Z,998.66
2017-03-17T08:59:22.401Z,998.68
2017-03-17T09:00:32.680Z,998.63
2017-03-17T09:01:42.660Z,998.63
2017-03-17T09:02:52.621Z,998.59
2017-03-17T09:04:02.904Z,998.56
2017-03-17T09:05:12.592Z,998.53
2017-03-17T09:06:22.881Z,998.51
2017-03-17T09:07:32.538Z,998.43
2017-03-17T09:08:42.525Z,998.46
2017-03-17T09:09:52.494Z,998.4
2017-03-17T09:11:02.784Z,998.4
2017-03-17T09:12:12.741Z,998.43
2017-03-17T09:13:23.004Z,998.41
2017-03-17T09:14:33.196Z,998.39
2017-03-17T09:15:43.459Z,998.34
2017-03-17T09:16:53.731Z,998.34
2017-03-17T09:18:04.005Z,998.34
2017-03-17T09:19:13.997Z,998.4
2017-03-17T09:20:23.981Z,998.35
2017-03-17T09:21:33.966Z,998.36
2017-03-17T09:22:44.242Z,998.3
2017-03-17T09:23:54.524Z,998.35
2017-03-17T09:25:04.500Z,998.29
2017-03-17T09:26:14.786Z,998.27
2017-03-17T09:27:25.066Z,998.21
2017-03-17T09:28:35.353Z,998.2
2017-03-17T09:29:45.647Z,998.17
2017-03-17T09:30:55.947Z,998.16
2017-03-17T09:32:06.237Z,998.13
2017-03-17T09:33:16.147Z,998.12
2017-03-17T09:34:26.433Z,998.11
2017-03-17T09:35:36.706Z,998.1
2017-03-17T09:36:46.375Z,998.11
2017-03-17T09:37:56.645Z,998.05
2017-03-17T09:39:06.637Z,998.07
2017-03-17T09:40:16.908Z,997.99
2017-03-17T09:41:27.185Z,997.98
2017-03-17T09:42:37.464Z,997.94
2017-03-17T09:43:47.112Z,997.98
2017-03-17T09:44:57.078Z,997.97
2017-03-17T09:46:07.045Z,997.98
2017-03-17T09:47:17.006Z,997.93
2017-03-17T09:48:26.968Z,997.92
2017-03-17T09:49:37.238Z,997.93
2017-03-17T09:50:47.510Z,997.88
2017-03-17T09:51:57.809Z,997.87
2017-03-17T09:53:08.082Z,997.86
2017-03-17T09:54:18.376Z,997.82
2017-03-17T09:55:28.659Z,997.8
2017-03-17T09:56:38.929Z,997.76
2017-03-17T09:57:49.196Z,997.75
2017-03-17T09:58:58.862Z,997.79
2017-03-17T10:00:09.145Z,997.75
2017-03-17T10:01:19.118Z,997.78
2017-03-17T10:02:29.078Z,997.76
2017-03-17T10:03:39.390Z,997.77
2017-03-17T10:04:49.366Z,997.76
2017-03-17T10:05:59.647Z,997.78
2017-03-17T10:07:09.612Z,997.76
2017-03-17T10:08:19.593Z,997.72
2017-03-17T10:09:29.568Z,997.67
2017-03-17T10:10:39.539Z,997.65
2017-03-17T10:11:49.823Z,997.62
2017-03-17T10:13:00.091Z,997.65
2017-03-17T10:14:10.066Z,997.64
2017-03-17T10:15:20.355Z,997.61
2017-03-17T10:16:30.315Z,997.62
2017-03-17T10:17:40.301Z,997.61
2017-03-17T10:18:50.582Z,997.55
2017-03-17T10:20:00.550Z,997.55
2017-03-17T10:21:10.537Z,997.5
2017-03-17T10:22:20.811Z,997.48
2017-03-17T10:23:31.125Z,997.5
2017-03-17T10:24:41.403Z,997.42
2017-03-17T10:25:51.378Z,997.36
2017-03-17T10:27:01.675Z,997.34
2017-03-17T10:28:11.975Z,997.36
2017-03-17T10:29:21.964Z,997.33
2017-03-17T10:30:32.241Z,997.34
2017-03-17T10:31:42.533Z,997.32
2017-03-17T10:32:52.796Z,997.26
2017-03-17T10:34:02.762Z,997.28
2017-03-17T10:35:13.055Z,997.2
2017-03-17T10:36:23.038Z,997.2
2017-03-17T10:37:32.996Z,997.16
2017-03-17T10:38:43.262Z,997.16
2017-03-17T10:39:53.554Z,997.11
2017-03-17T10:41:03.835Z,997.1
2017-03-17T10:42:14.121Z,997.07
2017-03-17T10:43:24.418Z,997.06
2017-03-17T10:44:34.390Z,996.99
2017-03-17T10:45:44.358Z,997
2017-03-17T10:46:54.627Z,996.95
2017-03-17T10:48:04.885Z,996.97
2017-03-17T10:49:15.165Z,996.92
2017-03-17T10:50:25.441Z,996.91
2017-03-17T10:51:35.708Z,996.87
2017-03-17T10:52:45.718Z,996.85
2017-03-17T10:53:55.391Z,996.82
2017-03-17T10:55:05.068Z,996.83
2017-03-17T10:56:15.362Z,996.89
2017-03-17T10:57:25.339Z,996.89
2017-03-17T10:58:35.312Z,996.84
2017-03-17T10:59:45.601Z,996.86
2017-03-17T11:00:55.891Z,996.8
2017-03-17T11:02:06.186Z,996.8
2017-03-17T11:03:16.167Z,996.76
2017-03-17T11:04:26.461Z,996.73
2017-03-17T11:05:36.744Z,996.74
2017-03-17T11:06:46.719Z,996.77
2017-03-17T11:07:56.992Z,996.73
2017-03-17T11:09:07.296Z,996.67
2017-03-17T11:10:17.577Z,996.66
2017-03-17T11:11:27.543Z,996.66
2017-03-17T11:12:37.512Z,996.64
2017-03-17T11:13:47.803Z,996.64
2017-03-17T11:14:58.084Z,996.57
2017-03-17T11:16:08.372Z,996.61
2017-03-17T11:17:18.643Z,996.57
2017-03-17T11:18:28.306Z,996.53
2017-03-17T11:19:38.271Z,996.5
2017-03-17T11:20:48.562Z,996.44
2017-03-17T11:21:58.515Z,996.42
2017-03-17T11:23:08.797Z,996.38
2017-03-17T11:24:19.078Z,996.39
2017-03-17T11:25:29.060Z,996.35
2017-03-17T11:26:39.036Z,996.31
2017-03-17T11:27:49.289Z,996.3
2017-03-17T11:28:59.583Z,996.31
2017-03-17T11:30:09.871Z,996.27
2017-03-17T11:31:20.143Z,996.25
2017-03-17T11:32:30.431Z,996.19
2017-03-17T11:33:40.723Z,996.13
2017-03-17T11:34:50.716Z,996.11
2017-03-17T11:36:00.999Z,996.09
2017-03-17T11:37:11.309Z,996.07
2017-03-17T11:38:21.611Z,996.05
2017-03-17T11:39:31.585Z,996.06
2017-03-17T11:40:41.547Z,996.02
2017-03-17T11:41:51.836Z,996.02
2017-03-17T11:43:01.806Z,996
2017-03-17T11:44:12.110Z,995.96
2017-03-17T11:45:22.376Z,995.91
2017-03-17T11:46:32.653Z,995.91
2017-03-17T11:47:42.619Z,995.87
2017-03-17T11:48:52.911Z,995.83
2017-03-17T11:50:03.220Z,995.78
2017-03-17T11:51:13.526Z,995.73
2017-03-17T11:52:23.816Z,995.65
2017-03-17T11:53:34.129Z,995.66
2017-03-17T11:54:44.153Z,995.58
2017-03-17T11:55:54.144Z,995.49
2017-03-17T11:57:04.677Z,995.51
2017-03-17T11:58:14.988Z,995.5
2017-03-17T11:59:25.292Z,995.44
2017-03-17T12:00:35.622Z,995.41
2017-03-17T12:01:45.898Z,995.41
2017-03-17T12:02:55.560Z,995.36
2017-03-17T12:04:05.534Z,995.31
2017-03-17T12:05:15.853Z,995.29
2017-03-17T12:06:26.127Z,995.24
2017-03-17T12:07:36.422Z,995.22
2017-03-17T12:08:46.701Z,995.19
2017-03-17T12:09:56.674Z,995.17
2017-03-17T12:11:06.335Z,995.14
2017-03-17T12:12:16.624Z,995.11
2017-03-17T12:13:26.634Z,995.03
2017-03-17T12:14:36.617Z,994.99
2017-03-17T12:15:46.899Z,994.92
2017-03-17T12:16:57.189Z,994.94
2017-03-17T12:18:07.461Z,994.92
2017-03-17T12:19:17.736Z,994.88
2017-03-17T12:20:28.011Z,994.86
2017-03-17T12:21:38.293Z,994.82
2017-03-17T12:22:48.578Z,994.77
2017-03-17T12:23:58.880Z,994.71
2017-03-17T12:25:09.167Z,994.67
2017-03-17T12:26:19.449Z,994.6
2017-03-17T12:27:29.736Z,994.56
2017-03-17T12:28:40.010Z,994.5
2017-03-17T12:29:49.991Z,994.51
2017-03-17T12:31:00.280Z,994.48
2017-03-17T12:32:10.569Z,994.51
2017-03-17T12:33:20.891Z,994.48
2017-03-17T12:34:31.191Z,994.44
2017-03-17T12:35:41.504Z,994.4
2017-03-17T12:36:51.771Z,994.34
2017-03-17T12:38:02.048Z,994.32
2017-03-17T12:39:12.337Z,994.31
2017-03-17T12:40:22.604Z,994.26
2017-03-17T12:41:32.899Z,994.3
2017-03-17T12:42:43.175Z,994.28
2017-03-17T12:43:53.458Z,994.22
2017-03-17T12:45:03.422Z,994.23
2017-03-17T12:46:13.709Z,994.13
2017-03-17T12:47:23.990Z,994.13
2017-03-17T12:48:34.269Z,994.11
2017-03-17T12:49:44.253Z,994.09
2017-03-17T12:50:54.532Z,994.05
2017-03-17T12:52:04.498Z,994.04
2017-03-17T12:53:14.780Z,994.03
2017-03-17T12:54:25.064Z,994
2017-03-17T12:55:35.344Z,994
2017-03-17T12:56:45.617Z,993.99
2017-03-17T12:57:55.896Z,994.05
2017-03-17T12:59:06.185Z,993.89
2017-03-17T13:00:16.150Z,993.78
2017-03-17T13:01:26.425Z,993.78
2017-03-17T13:02:36.718Z,993.86
2017-03-17T13:03:47.018Z,993.84
2017-03-17T13:04:56.996Z,993.78
2017-03-17T13:06:07.298Z,993.74
2017-03-17T13:07:17.584Z,993.74
2017-03-17T13:08:27.562Z,993.74
2017-03-17T13:09:37.877Z,993.68
2017-03-17T13:10:47.867Z,993.64
2017-03-17T13:11:58.149Z,993.63
2017-03-17T13:13:08.125Z,993.64
2017-03-17T13:14:18.417Z,993.66
2017-03-17T13:15:28.388Z,993.71
2017-03-17T13:16:37.760Z,993.61
2017-03-17T13:17:48.053Z,993.55
2017-03-17T13:18:58.359Z,993.5
2017-03-17T13:20:08.694Z,993.46
2017-03-17T13:21:18.970Z,993.52
2017-03-17T13:22:29.248Z,993.54
2017-03-17T13:23:39.229Z,993.43
2017-03-17T13:24:49.266Z,993.5
2017-03-17T13:25:59.266Z,993.41
2017-03-17T13:27:09.554Z,993.43
2017-03-17T13:28:20.069Z,993.45
2017-03-17T13:29:30.062Z,993.48
2017-03-17T13:30:40.343Z,993.34
2017-03-17T13:31:50.325Z,993.4
2017-03-17T13:33:00.327Z,993.31
2017-03-17T13:34:10.619Z,993.4
2017-03-17T13:35:20.599Z,993.36
2017-03-17T13:36:30.592Z,993.32
2017-03-17T13:37:40.573Z,993.28
2017-03-17T13:38:50.568Z,993.27
2017-03-17T13:40:00.858Z,993.29
2017-03-17T13:41:11.143Z,993.3
2017-03-17T13:42:21.111Z,993.18
2017-03-17T13:43:31.405Z,993.12
2017-03-17T13:44:41.404Z,993.14
2017-03-17T13:45:51.700Z,993.05
2017-03-17T13:47:01.680Z,993.1
2017-03-17T13:48:11.957Z,993.11
2017-03-17T13:49:22.244Z,993.25
2017-03-17T13:50:32.532Z,993.08
2017-03-17T13:51:42.485Z,993.03
2017-03-17T13:52:52.456Z,993.05
2017-03-17T13:54:02.120Z,993.05
2017-03-17T13:55:12.411Z,993.01
2017-03-17T13:56:22.395Z,993.04
2017-03-17T13:57:32.685Z,993.02
2017-03-17T13:58:42.978Z,993.05
2017-03-17T13:59:53.273Z,992.96
2017-03-17T14:01:03.573Z,992.95
2017-03-17T14:02:13.859Z,992.93
2017-03-17T14:03:24.154Z,992.91
2017-03-17T14:04:34.133Z,992.83
2017-03-17T14:05:43.804Z,992.81
2017-03-17T14:06:54.003Z,992.8
2017-03-17T14:08:03.994Z,992.71
2017-03-17T14:09:14.302Z,992.71
2017-03-17T14:10:24.628Z,992.68
2017-03-17T14:11:34.608Z,992.65
2017-03-17T14:12:44.582Z,992.58
2017-03-17T14:13:54.859Z,992.75
2017-03-17T14:15:05.129Z,992.64
2017-03-17T14:16:15.410Z,992.55
2017-03-17T14:17:25.701Z,992.5
2017-03-17T14:18:35.984Z,992.47
2017-03-17T14:19:45.966Z,992.43
2017-03-17T14:20:56.256Z,992.47
2017-03-17T14:22:06.565Z,992.42
2017-03-17T14:23:16.526Z,992.49
2017-03-17T14:24:26.823Z,992.46
2017-03-17T14:25:37.088Z,992.42
2017-03-17T14:26:47.390Z,992.47
2017-03-17T14:27:57.672Z,992.47
2017-03-17T14:29:07.664Z,992.44
2017-03-17T14:30:17.652Z,992.49
2017-03-17T14:31:27.610Z,992.49
2017-03-17T14:32:37.610Z,992.51
2017-03-17T14:33:47.594Z,992.44
2017-03-17T14:34:57.570Z,992.41
2017-03-17T14:36:07.852Z,992.38
2017-03-17T14:37:18.161Z,992.35
2017-03-17T14:38:28.453Z,992.35
2017-03-17T14:39:38.742Z,992.33
2017-03-17T14:40:49.042Z,992.3
2017-03-17T14:41:58.698Z,992.28
2017-03-17T14:43:08.974Z,992.25
2017-03-17T14:44:19.284Z,992.33
2017-03-17T14:45:29.263Z,992.29
2017-03-17T14:46:39.546Z,992.25
2017-03-17T14:47:49.197Z,992.27
2017-03-17T14:48:58.860Z,992.22
2017-03-17T14:50:08.839Z,992.21
2017-03-17T14:51:19.124Z,992.27
2017-03-17T14:52:29.110Z,992.18
2017-03-17T14:53:39.108Z,992.17
2017-03-17T14:54:49.085Z,992.14
2017-03-17T14:55:59.045Z,992.17
2017-03-17T14:57:09.256Z,992.2
2017-03-17T14:58:19.242Z,992.12